createdAt,value
2023-10-16T00:00:42.330Z,65.36
2023-10-16T00:03:14.971Z,66.89
2023-10-16T00:05:46.685Z,66.40
2023-10-16T00:08:19.593Z,65.45
2023-10-16T00:11:00.595Z,65.44
2023-10-16T00:13:32.814Z,65.81
2023-10-16T00:16:04.639Z,67.00
2023-10-16T00:18:36.175Z,65.99
2023-10-16T00:21:07.787Z,66.68
2023-10-16T00:23:39.394Z,67.20
2023-10-16T00:26:13.015Z,67.68
2023-10-16T00:28:48.878Z,67.47
2023-10-16T00:31:20.464Z,67.42
2023-10-16T00:33:52.157Z,68.02
2023-10-16T00:36:23.990Z,67.18
2023-10-16T00:38:55.577Z,67.77
2023-10-16T00:41:28.197Z,69.06
2023-10-16T00:43:59.763Z,68.18
2023-10-16T00:46:33.162Z,68.29
2023-10-16T00:49:06.118Z,69.24
2023-10-16T00:51:41.350Z,69.23
2023-10-16T00:54:22.034Z,69.88
2023-10-16T00:56:54.864Z,69.00
2023-10-16T00:59:27.541Z,69.91
2023-10-16T01:02:01.517Z,69.76
2023-10-16T01:04:34.330Z,69.78
2023-10-16T01:07:06.189Z,69.74
2023-10-16T01:09:38.090Z,69.05
2023-10-16T01:12:09.785Z,69.83
2023-10-16T01:14:42.862Z,70.20
2023-10-16T01:17:14.515Z,69.99
2023-10-16T01:19:47.932Z,70.26
2023-10-16T01:22:19.504Z,69.80
2023-10-16T01:24:52.858Z,70.22
2023-10-16T01:27:24.632Z,69.85
2023-10-16T01:29:57.058Z,69.91
2023-10-16T01:32:29.199Z,69.09
2023-10-16T01:35:01.612Z,69.16
2023-10-16T01:37:33.231Z,69.56
2023-10-16T01:40:05.493Z,69.33
2023-10-16T01:42:37.105Z,69.76
2023-10-16T01:45:08.883Z,70.26
2023-10-16T01:47:40.474Z,70.04
2023-10-16T01:50:12.345Z,69.78
2023-10-16T01:52:43.943Z,68.89
2023-10-16T01:55:16.487Z,69.41
2023-10-16T01:57:48.193Z,68.82
2023-10-16T02:00:20.022Z,68.87
2023-10-16T02:02:51.737Z,68.19
2023-10-16T02:05:23.446Z,68.01
2023-10-16T02:07:55.082Z,68.40
2023-10-16T02:10:26.830Z,67.52
2023-10-16T02:12:58.583Z,67.27
2023-10-16T02:15:33.856Z,67.85
2023-10-16T02:18:07.567Z,67.75
2023-10-16T02:20:39.292Z,67.32
2023-10-16T02:23:14.149Z,67.70
2023-10-16T02:25:46.831Z,66.99
2023-10-16T02:28:18.500Z,68.04
2023-10-16T02:30:50.767Z,66.78
2023-10-16T02:33:23.190Z,67.16
2023-10-16T02:35:55.880Z,67.60
2023-10-16T02:38:27.892Z,67.78
2023-10-16T02:41:00.560Z,67.43
2023-10-16T02:43:33.852Z,67.60
2023-10-16T02:46:05.782Z,67.06
2023-10-16T02:48:42.744Z,67.65
2023-10-16T02:51:14.655Z,67.55
2023-10-16T02:53:47.191Z,67.23
2023-10-16T02:56:19.031Z,67.49
2023-10-16T02:58:50.577Z,67.84
2023-10-16T03:01:23.045Z,67.47
2023-10-16T03:03:54.770Z,68.75
2023-10-16T03:06:26.385Z,68.77
2023-10-16T03:08:58.157Z,68.55
2023-10-16T03:11:29.716Z,68.95
2023-10-16T03:14:01.335Z,68.06
2023-10-16T03:16:32.946Z,68.39
2023-10-16T03:19:05.758Z,68.72
2023-10-16T03:21:37.424Z,69.39
2023-10-16T03:24:09.147Z,68.62
2023-10-16T03:26:40.710Z,68.76
2023-10-16T03:29:12.347Z,68.81
2023-10-16T03:31:43.921Z,68.75
2023-10-16T03:34:15.557Z,68.56
2023-10-16T03:36:47.204Z,68.52
2023-10-16T03:39:18.992Z,69.47
2023-10-16T03:41:52.160Z,69.15
2023-10-16T03:44:24.626Z,69.31
2023-10-16T03:46:56.373Z,68.46
2023-10-16T03:49:28.044Z,68.45
2023-10-16T03:51:59.771Z,69.12
2023-10-16T03:54:31.596Z,68.32
2023-10-16T03:57:03.705Z,67.75
2023-10-16T03:59:35.638Z,67.77
2023-10-16T04:02:08.007Z,67.26
2023-10-16T04:04:39.889Z,67.99
2023-10-16T04:07:13.653Z,68.61
2023-10-16T04:09:46.414Z,68.89
2023-10-16T04:12:18.858Z,69.35
2023-10-16T04:15:05.833Z,69.26
2023-10-16T04:17:37.542Z,68.60
2023-10-16T04:20:09.516Z,68.23
2023-10-16T04:22:41.066Z,67.51
2023-10-16T04:25:12.614Z,66.63
2023-10-16T04:27:44.176Z,67.65
2023-10-16T04:30:15.845Z,67.51
2023-10-16T04:32:47.399Z,68.23
2023-10-16T04:35:18.956Z,68.50
2023-10-16T04:37:50.596Z,68.81
2023-10-16T04:40:23.304Z,67.59
2023-10-16T04:42:54.884Z,68.44
2023-10-16T04:45:26.682Z,67.18
2023-10-16T04:47:58.770Z,69.18
2023-10-16T04:50:44.414Z,68.07
2023-10-16T04:53:23.072Z,68.26
2023-10-16T04:55:55.106Z,68.31
2023-10-16T04:58:26.798Z,68.59
2023-10-16T05:00:59.360Z,69.67
2023-10-16T05:03:34.226Z,69.22
2023-10-16T05:06:08.892Z,68.98
2023-10-16T05:08:41.882Z,69.04
2023-10-16T05:11:14.211Z,69.44
2023-10-16T05:13:46.385Z,69.52
2023-10-16T05:16:17.946Z,70.04
2023-10-16T05:18:53.392Z,70.11
2023-10-16T05:21:25.758Z,70.57
2023-10-16T05:23:59.117Z,70.67
2023-10-16T05:26:35.383Z,70.74
2023-10-16T05:29:09.770Z,70.14
2023-10-16T05:31:41.511Z,69.88
2023-10-16T05:34:13.597Z,70.01
2023-10-16T05:36:46.228Z,70.13
2023-10-16T05:39:17.942Z,70.26
2023-10-16T05:41:53.241Z,72.22
2023-10-16T05:44:25.354Z,72.27
2023-10-16T05:46:57.208Z,72.45
2023-10-16T05:49:29.437Z,72.92
2023-10-16T05:52:01.023Z,72.16
2023-10-16T05:54:32.621Z,72.33
2023-10-16T05:57:04.201Z,72.24
2023-10-16T05:59:36.439Z,73.53
2023-10-16T06:02:08.163Z,73.18
2023-10-16T06:04:39.853Z,73.21
2023-10-16T06:07:11.662Z,72.73
2023-10-16T06:09:43.281Z,73.45
2023-10-16T06:12:14.901Z,73.74
2023-10-16T06:14:46.667Z,74.34
2023-10-16T06:17:18.293Z,74.66
2023-10-16T06:19:49.882Z,74.73
2023-10-16T06:22:21.402Z,74.74
2023-10-16T06:24:53.036Z,74.08
2023-10-16T06:27:24.790Z,74.44
2023-10-16T06:29:57.041Z,74.45
2023-10-16T06:32:28.882Z,74.21
2023-10-16T06:35:00.526Z,74.95
2023-10-16T06:37:36.074Z,74.18
2023-10-16T06:40:08.758Z,72.77
2023-10-16T06:42:40.926Z,73.55
2023-10-16T06:45:12.865Z,73.26
2023-10-16T06:47:47.388Z,73.34
2023-10-16T06:50:19.555Z,73.05
2023-10-16T06:52:59.769Z,73.08
2023-10-16T06:55:33.082Z,72.60
2023-10-16T06:58:07.271Z,72.51
2023-10-16T07:00:41.736Z,72.05
2023-10-16T07:03:14.184Z,71.74
2023-10-16T07:05:46.894Z,71.70
2023-10-16T07:08:20.446Z,70.85
2023-10-16T07:10:55.947Z,71.54
2023-10-16T07:13:27.469Z,71.26
2023-10-16T07:16:01.782Z,69.90
2023-10-16T07:18:35.020Z,69.33
2023-10-16T07:21:07.533Z,67.84
2023-10-16T07:23:39.238Z,68.64
2023-10-16T07:26:11.146Z,68.76
2023-10-16T07:28:42.683Z,69.49
2023-10-16T07:31:14.259Z,69.50
2023-10-16T07:33:46.851Z,70.40
2023-10-16T07:36:18.473Z,69.57
2023-10-16T07:38:51.536Z,70.95
2023-10-16T07:41:23.594Z,70.76
2023-10-16T07:43:55.243Z,70.34
2023-10-16T07:46:26.836Z,71.07
2023-10-16T07:49:00.115Z,68.45
2023-10-16T07:51:31.908Z,68.43
2023-10-16T07:54:04.457Z,70.14
2023-10-16T07:56:36.744Z,68.59
2023-10-16T07:59:08.833Z,69.43
2023-10-16T08:01:43.913Z,70.06
2023-10-16T08:04:17.209Z,70.05
2023-10-16T08:06:51.874Z,68.74
2023-10-16T08:09:25.250Z,68.50
2023-10-16T08:11:58.269Z,69.51
2023-10-16T08:14:30.790Z,68.78
2023-10-16T08:17:02.656Z,69.10
2023-10-16T08:19:35.139Z,69.03
2023-10-16T08:22:07.600Z,68.27
2023-10-16T08:24:48.371Z,69.10
2023-10-16T08:27:23.449Z,67.80
2023-10-16T08:29:55.910Z,67.63
2023-10-16T08:32:27.571Z,67.59
2023-10-16T08:35:01.599Z,65.71
2023-10-16T08:37:45.385Z,66.54
2023-10-16T08:40:22.696Z,65.29
2023-10-16T08:42:54.745Z,66.59
2023-10-16T08:45:27.761Z,65.08
2023-10-16T08:48:00.626Z,64.41
2023-10-16T08:50:36.797Z,65.64
2023-10-16T08:53:10.289Z,65.06
2023-10-16T08:55:41.903Z,64.27
2023-10-16T08:58:14.391Z,64.18
2023-10-16T09:00:46.051Z,63.55
2023-10-16T09:03:21.538Z,63.28
2023-10-16T09:05:53.118Z,61.82
2023-10-16T09:08:25.044Z,61.48
2023-10-16T09:10:56.793Z,62.66
2023-10-16T09:13:33.945Z,61.78
2023-10-16T09:16:12.676Z,64.90
2023-10-16T09:18:46.097Z,61.65
2023-10-16T09:21:20.193Z,62.34
2023-10-16T09:23:59.181Z,61.61
2023-10-16T09:26:33.263Z,61.38
2023-10-16T09:29:05.778Z,60.85
2023-10-16T09:31:49.954Z,60.83
2023-10-16T09:34:25.008Z,59.15
2023-10-16T09:37:00.453Z,57.59
2023-10-16T09:39:33.980Z,54.75
2023-10-16T09:42:06.993Z,56.62
2023-10-16T09:44:46.059Z,55.62
2023-10-16T09:47:19.930Z,54.83
2023-10-16T09:49:59.584Z,56.04
2023-10-16T09:52:37.276Z,58.76
2023-10-16T09:55:14.162Z,56.54
2023-10-16T09:57:57.697Z,56.52
2023-10-16T10:00:41.785Z,57.03
2023-10-16T10:03:15.998Z,57.45
2023-10-16T10:05:51.223Z,59.32
2023-10-16T10:08:31.514Z,58.36
2023-10-16T10:11:22.280Z,56.60
2023-10-16T10:14:01.010Z,56.74
2023-10-16T10:16:34.719Z,56.48
2023-10-16T10:19:20.251Z,53.98
2023-10-16T10:21:52.090Z,55.96
2023-10-16T10:24:24.929Z,53.71
2023-10-16T10:26:57.425Z,55.85
2023-10-16T10:29:30.655Z,55.45
2023-10-16T10:32:11.315Z,55.40
2023-10-16T10:34:45.316Z,52.75
2023-10-16T10:37:45.645Z,53.39
2023-10-16T10:40:19.266Z,52.47
2023-10-16T10:42:58.362Z,52.76
2023-10-16T10:45:35.906Z,53.66
2023-10-16T10:48:12.859Z,54.75
2023-10-16T10:50:52.773Z,52.97
2023-10-16T10:53:28.343Z,52.07
2023-10-16T10:56:02.915Z,52.93
2023-10-16T10:58:36.876Z,51.73
2023-10-16T11:01:11.291Z,53.24
2023-10-16T11:03:46.698Z,52.74
2023-10-16T11:06:20.125Z,54.16
2023-10-16T11:09:01.294Z,52.78
2023-10-16T11:11:38.729Z,54.15
2023-10-16T11:14:12.747Z,53.16
2023-10-16T11:16:47.554Z,52.06
2023-10-16T11:19:23.372Z,54.26
2023-10-16T11:22:05.678Z,51.63
2023-10-16T11:24:52.099Z,51.56
2023-10-16T11:27:24.060Z,50.17
2023-10-16T11:29:55.653Z,50.72
2023-10-16T11:32:27.832Z,51.44
2023-10-16T11:34:59.384Z,51.92
2023-10-16T11:37:32.609Z,50.81
2023-10-16T11:40:04.676Z,53.64
2023-10-16T11:42:36.403Z,51.13
2023-10-16T11:45:09.128Z,50.80
2023-10-16T11:47:41.230Z,50.48
2023-10-16T11:50:13.524Z,53.11
2023-10-16T11:52:46.391Z,49.81
2023-10-16T11:55:18.917Z,52.23
2023-10-16T11:57:50.965Z,50.18
2023-10-16T12:00:23.019Z,50.65
2023-10-16T12:02:55.185Z,51.34
2023-10-16T12:05:28.304Z,49.18
2023-10-16T12:08:01.078Z,48.21
2023-10-16T12:10:38.734Z,48.71
2023-10-16T12:13:14.975Z,48.55
2023-10-16T12:15:53.917Z,47.53
2023-10-16T12:18:27.278Z,46.66
2023-10-16T12:21:01.158Z,46.97
2023-10-16T12:23:36.833Z,45.20
2023-10-16T12:26:08.669Z,45.17
2023-10-16T12:28:40.344Z,44.39
2023-10-16T12:31:12.166Z,44.83
2023-10-16T12:33:43.868Z,44.81
2023-10-16T12:36:15.564Z,43.95
2023-10-16T12:38:47.127Z,46.79
2023-10-16T12:41:18.902Z,47.43
2023-10-16T12:43:50.932Z,45.43
2023-10-16T12:46:22.486Z,43.98
2023-10-16T12:48:54.328Z,44.05
2023-10-16T12:51:26.231Z,44.66
2023-10-16T12:53:57.982Z,44.41
2023-10-16T12:56:30.822Z,44.25
2023-10-16T12:59:05.528Z,45.63
2023-10-16T13:01:37.376Z,47.48
2023-10-16T13:04:09.002Z,47.00
2023-10-16T13:06:42.126Z,47.87
2023-10-16T13:09:14.239Z,45.91
2023-10-16T13:11:47.103Z,45.49
2023-10-16T13:14:19.171Z,45.07
2023-10-16T13:16:50.918Z,44.35
2023-10-16T13:19:22.508Z,46.27
2023-10-16T13:21:54.928Z,45.21
2023-10-16T13:24:26.718Z,44.22
2023-10-16T13:26:58.397Z,43.98
2023-10-16T13:29:29.912Z,43.98
2023-10-16T13:32:01.421Z,44.58
2023-10-16T13:34:33.079Z,44.78
2023-10-16T13:37:04.797Z,46.06
2023-10-16T13:39:36.501Z,46.48
2023-10-16T13:42:08.795Z,46.83
2023-10-16T13:44:40.377Z,45.91
2023-10-16T13:47:12.412Z,46.40
2023-10-16T13:49:44.550Z,46.28
2023-10-16T13:52:16.227Z,46.72
2023-10-16T13:54:47.973Z,47.15
2023-10-16T13:57:19.602Z,46.58
2023-10-16T13:59:51.512Z,46.65
2023-10-16T14:02:23.202Z,47.69
2023-10-16T14:04:55.199Z,44.92
2023-10-16T14:07:26.932Z,45.98
2023-10-16T14:10:00.392Z,46.89
2023-10-16T14:12:33.195Z,46.19
2023-10-16T14:15:05.516Z,45.85
2023-10-16T14:17:37.284Z,45.57
2023-10-16T14:20:09.628Z,46.61
2023-10-16T14:22:41.214Z,46.25
2023-10-16T14:25:12.845Z,46.30
2023-10-16T14:27:44.487Z,47.04
2023-10-16T14:30:16.147Z,46.28
2023-10-16T14:32:47.715Z,46.11
2023-10-16T14:35:19.300Z,47.46
2023-10-16T14:37:50.825Z,49.16
2023-10-16T14:40:22.391Z,49.14
2023-10-16T14:42:54.040Z,49.75
2023-10-16T14:45:25.617Z,50.15
2023-10-16T14:47:57.185Z,50.62
2023-10-16T14:50:28.742Z,50.74
2023-10-16T14:53:01.110Z,52.01
2023-10-16T14:55:33.267Z,52.31
2023-10-16T14:58:16.768Z,52.04
2023-10-16T15:00:56.635Z,51.79
2023-10-16T15:03:28.228Z,51.70
2023-10-16T15:05:59.921Z,52.84
2023-10-16T15:08:31.784Z,53.64
2023-10-16T15:11:03.896Z,54.04
2023-10-16T15:13:35.608Z,53.37
2023-10-16T15:16:08.937Z,53.91
2023-10-16T15:18:41.115Z,52.98
2023-10-16T15:21:12.887Z,53.59
2023-10-16T15:23:44.569Z,53.19
2023-10-16T15:26:16.293Z,53.67
2023-10-16T15:28:48.859Z,53.33
2023-10-16T15:31:20.890Z,53.23
2023-10-16T15:33:52.971Z,53.98
2023-10-16T15:36:25.557Z,54.00
2023-10-16T15:38:57.334Z,54.10
2023-10-16T15:41:29.252Z,54.81
2023-10-16T15:44:00.897Z,54.79
2023-10-16T15:46:33.141Z,54.72
2023-10-16T15:49:05.005Z,54.83
2023-10-16T15:51:36.555Z,55.77
2023-10-16T15:54:08.066Z,55.21
2023-10-16T15:56:39.541Z,55.85
2023-10-16T15:59:11.106Z,57.16
2023-10-16T16:01:42.696Z,57.87
2023-10-16T16:04:14.331Z,57.66
2023-10-16T16:06:45.945Z,56.85
2023-10-16T16:09:17.564Z,57.10
2023-10-16T16:11:49.090Z,57.11
2023-10-16T16:14:21.811Z,57.98
2023-10-16T16:16:53.613Z,58.61
2023-10-16T16:19:25.556Z,59.94
2023-10-16T16:21:57.149Z,59.85
2023-10-16T16:24:29.284Z,60.72
2023-10-16T16:27:00.935Z,59.62
2023-10-16T16:29:33.150Z,59.58
2023-10-16T16:32:06.183Z,60.00
2023-10-16T16:34:38.769Z,60.27
2023-10-16T16:37:10.337Z,61.69
2023-10-16T16:39:42.171Z,62.88
2023-10-16T16:42:13.801Z,62.45
2023-10-16T16:44:45.886Z,62.57
2023-10-16T16:47:19.665Z,62.32
2023-10-16T16:49:51.521Z,63.16
2023-10-16T16:52:24.134Z,63.04
2023-10-16T16:54:56.376Z,63.13
2023-10-16T16:57:31.390Z,63.12
2023-10-16T17:00:11.631Z,63.29
2023-10-16T17:02:45.071Z,65.26
2023-10-16T17:05:23.852Z,64.34
2023-10-16T17:07:58.676Z,65.55
2023-10-16T17:10:30.284Z,66.92
2023-10-16T17:13:01.937Z,66.45
2023-10-16T17:15:33.546Z,66.68
2023-10-16T17:18:05.486Z,66.97
2023-10-16T17:20:37.136Z,66.20
2023-10-16T17:23:08.716Z,66.63
2023-10-16T17:25:40.369Z,66.70
2023-10-16T17:28:12.018Z,68.86
2023-10-16T17:30:43.548Z,69.33
2023-10-16T17:33:15.274Z,69.79
2023-10-16T17:35:47.143Z,69.70
2023-10-16T17:38:18.701Z,68.11
2023-10-16T17:40:50.212Z,67.96
2023-10-16T17:43:21.796Z,68.85
2023-10-16T17:45:54.182Z,68.94
2023-10-16T17:48:25.826Z,68.66
2023-10-16T17:50:57.532Z,70.52
2023-10-16T17:53:29.145Z,71.37
2023-10-16T17:56:01.095Z,72.40
2023-10-16T17:58:33.306Z,71.71
2023-10-16T18:01:05.011Z,72.22
2023-10-16T18:03:38.198Z,72.11
2023-10-16T18:06:10.196Z,72.45
2023-10-16T18:08:42.431Z,73.27
2023-10-16T18:11:14.402Z,73.64
2023-10-16T18:13:46.494Z,73.96
2023-10-16T18:16:19.137Z,73.96
2023-10-16T18:18:50.946Z,74.48
2023-10-16T18:21:23.547Z,75.68
2023-10-16T18:23:59.058Z,75.26
2023-10-16T18:26:33.165Z,75.43
2023-10-16T18:29:05.506Z,75.43
2023-10-16T18:31:37.236Z,75.44
2023-10-16T18:34:08.934Z,74.88
2023-10-16T18:36:43.606Z,72.80
2023-10-16T18:39:15.182Z,73.41
2023-10-16T18:41:47.095Z,72.84
2023-10-16T18:44:18.680Z,72.67
2023-10-16T18:46:50.233Z,73.78
2023-10-16T18:49:21.849Z,74.38
2023-10-16T18:51:53.428Z,73.65
2023-10-16T18:54:24.969Z,74.25
2023-10-16T18:56:56.610Z,73.79
2023-10-16T18:59:28.255Z,74.00
2023-10-16T19:01:59.829Z,73.90
2023-10-16T19:04:31.405Z,73.57
2023-10-16T19:07:03.363Z,75.03
2023-10-16T19:09:34.915Z,74.17
2023-10-16T19:12:06.873Z,74.96
2023-10-16T19:14:38.469Z,74.17
2023-10-16T19:17:10.171Z,73.72
2023-10-16T19:19:42.836Z,74.55
2023-10-16T19:22:14.525Z,74.16
2023-10-16T19:24:46.313Z,74.51
2023-10-16T19:27:18.089Z,74.28
2023-10-16T19:29:50.873Z,74.91
2023-10-16T19:32:23.214Z,75.02
2023-10-16T19:34:57.219Z,75.67
2023-10-16T19:37:33.139Z,76.51
2023-10-16T19:40:06.023Z,76.85
2023-10-16T19:42:46.896Z,77.39
2023-10-16T19:45:20.024Z,78.20
2023-10-16T19:47:54.318Z,78.54
2023-10-16T19:50:27.792Z,79.70
2023-10-16T19:53:03.040Z,79.97
2023-10-16T19:55:36.614Z,79.77
2023-10-16T19:58:08.158Z,79.58
2023-10-16T20:00:39.796Z,79.31
2023-10-16T20:03:11.904Z,79.22
2023-10-16T20:05:43.518Z,78.60
2023-10-16T20:08:15.346Z,77.74
2023-10-16T20:10:46.872Z,76.00
2023-10-16T20:13:18.428Z,74.54
2023-10-16T20:15:49.998Z,76.54
2023-10-16T20:18:21.529Z,76.94
2023-10-16T20:20:53.753Z,78.10
2023-10-16T20:23:25.339Z,78.25
2023-10-16T20:25:56.906Z,78.30
2023-10-16T20:28:28.488Z,77.54
2023-10-16T20:31:00.230Z,78.29
2023-10-16T20:33:31.854Z,77.51
2023-10-16T20:36:04.208Z,76.57
2023-10-16T20:38:36.485Z,77.81
2023-10-16T20:41:08.580Z,78.45
2023-10-16T20:43:40.589Z,77.88
2023-10-16T20:46:12.314Z,78.58
2023-10-16T20:48:44.085Z,77.77
2023-10-16T20:51:17.188Z,78.66
2023-10-16T20:53:48.965Z,79.26
2023-10-16T20:56:23.426Z,79.40
2023-10-16T20:58:55.693Z,79.28
2023-10-16T21:01:27.456Z,79.49
2023-10-16T21:03:59.521Z,79.62
2023-10-16T21:06:33.532Z,80.63
2023-10-16T21:09:06.523Z,80.34
2023-10-16T21:11:38.745Z,79.80
2023-10-16T21:14:10.618Z,80.17
2023-10-16T21:16:43.517Z,80.90
2023-10-16T21:19:18.050Z,81.15
2023-10-16T21:21:49.765Z,80.66
2023-10-16T21:24:21.442Z,79.36
2023-10-16T21:26:53.057Z,78.99
2023-10-16T21:29:24.703Z,79.92
2023-10-16T21:31:56.320Z,79.98
2023-10-16T21:34:28.032Z,80.84
2023-10-16T21:36:59.743Z,79.62
2023-10-16T21:39:31.297Z,80.32
2023-10-16T21:42:02.926Z,80.73
2023-10-16T21:44:34.472Z,81.49
2023-10-16T21:47:07.633Z,82.11
2023-10-16T21:49:41.946Z,82.26
2023-10-16T21:52:15.003Z,82.71
2023-10-16T21:54:48.090Z,83.58
2023-10-16T21:57:19.933Z,83.72
2023-10-16T21:59:51.796Z,83.56
2023-10-16T22:02:23.862Z,82.90
2023-10-16T22:04:55.531Z,82.07
2023-10-16T22:07:27.919Z,82.46
2023-10-16T22:09:59.650Z,82.33
2023-10-16T22:12:32.757Z,81.94
2023-10-16T22:15:07.607Z,82.16
2023-10-16T22:17:40.337Z,81.85
2023-10-16T22:20:12.933Z,82.11
2023-10-16T22:22:44.822Z,80.92
2023-10-16T22:25:17.838Z,79.86
2023-10-16T22:27:50.334Z,80.32
2023-10-16T22:30:22.825Z,80.13
2023-10-16T22:32:56.545Z,80.90
2023-10-16T22:35:29.979Z,80.02
2023-10-16T22:38:04.230Z,79.93
2023-10-16T22:40:36.032Z,80.00
2023-10-16T22:43:08.137Z,79.43
2023-10-16T22:45:40.844Z,79.19
2023-10-16T22:48:12.803Z,77.79
2023-10-16T22:50:44.526Z,78.84
2023-10-16T22:53:16.076Z,78.26
2023-10-16T22:55:47.585Z,78.37
2023-10-16T22:58:19.164Z,79.11
2023-10-16T23:00:50.747Z,79.99
2023-10-16T23:03:22.450Z,79.56
2023-10-16T23:05:57.884Z,79.94
2023-10-16T23:08:33.316Z,79.92
2023-10-16T23:11:05.442Z,79.72
2023-10-16T23:13:37.574Z,79.77
2023-10-16T23:16:09.220Z,78.88
2023-10-16T23:18:41.879Z,77.54
2023-10-16T23:21:13.530Z,77.65
2023-10-16T23:23:45.500Z,77.36
2023-10-16T23:26:17.320Z,77.49
2023-10-16T23:28:49.034Z,77.75
2023-10-16T23:31:21.246Z,77.99
2023-10-16T23:33:53.125Z,80.16
2023-10-16T23:36:24.853Z,79.57
2023-10-16T23:38:57.409Z,80.52
2023-10-16T23:41:30.693Z,79.61
2023-10-16T23:44:04.591Z,79.63
2023-10-16T23:46:36.274Z,79.79
2023-10-16T23:49:14.000Z,79.13
2023-10-16T23:51:46.744Z,78.86
2023-10-16T23:54:22.420Z,79.53
2023-10-16T23:56:55.774Z,78.94
2023-10-16T23:59:32.847Z,79.70
